KBYG/BYG METAR and TAF weather

Enter ICAO airport designator
Station Type Date Time Source
KBYG METAR 2020/01/19 22:53 UTC NOAA

KBYG 192253Z AUTO 11005KT 10SM CLR 04/M09 A3034 RMK AO2 SLP302 T00391094


Station Type Date Time Source
KBYG Decoded METAR 2020/01/19 22:53 UTC NOAA

BUFFALO JOHNSON COUNTY AIRPORT , WY, United States (KBYG) 44-23N 106-43W 1497M
Jan 19, 2020 - 05:53 PM EST / 2020.01.19 2253 UTC
Wind: from the ESE (110 degrees) at 6 MPH (5 KT):0
Visibility: 10 mile(s):0
Sky conditions: clear
Temperature: 39.0 F (3.9 C)
Dew Point: 15.1 F (-9.4 C)
Relative Humidity: 37%
Pressure (altimeter): 30.34 in. Hg (1027 hPa)
ob: KBYG 192253Z AUTO 11005KT 10SM CLR 04/M09 A3034 RMK AO2 SLP302 T00391094
cycle: 23

Station Type Date Time Source
KBYG TAF UTC NOAA

Error!

Example: see airport list